Time;durP1;ratioP1;P1;durP2;ratioP2;P2;SDS_P1;SDS_P2;PMS_P1;PMS_P2;Temp;Humidity;BMP_temperature;BMP_pressure;BME280_temperature;BME280_humidity;BME280_pressure;Samples;Min_cycle;Max_cycle;Signal;HPM_P1;HPM_P2
2022/02/03 00:00:03;;;;;;;55.60;30.95;;;9.70;99.90;;;;;;5024864;28;20399;-77
2022/02/03 00:02:46;;;;;;;58.30;30.80;;;9.70;99.90;;;;;;5026700;28;20391;-77
2022/02/03 00:05:21;;;;;;;58.15;30.23;;;9.70;99.90;;;;;;4981479;28;20422;-77
2022/02/03 00:07:58;;;;;;;57.85;30.65;;;9.70;99.90;;;;;;5017385;28;20401;-78
2022/02/03 00:26:34;;;;;;;51.65;28.13;;;9.80;99.90;;;;;;5031753;28;20446;-76
2022/02/03 00:29:03;;;;;;;53.42;28.45;;;9.80;98.70;;;;;;5043789;28;20477;-75
2022/02/03 00:34:09;;;;;;;50.63;27.60;;;9.80;99.70;;;;;;5012433;28;20397;-78
2022/02/03 00:37:06;;;;;;;53.70;28.33;;;9.80;99.90;;;;;;5015190;28;20482;-77
2022/02/03 00:50:39;;;;;;;54.80;28.27;;;9.80;99.90;;;;;;5029003;28;20403;-78
2022/02/03 00:53:07;;;;;;;53.25;28.40;;;9.80;99.90;;;;;;5020317;28;20427;-76
2022/02/03 00:55:37;;;;;;;51.80;27.70;;;9.80;99.90;;;;;;5023701;28;20388;-77
2022/02/03 00:58:04;;;;;;;52.15;29.40;;;9.80;99.90;;;;;;4988375;28;20485;-77
2022/02/03 01:00:33;;;;;;;53.25;26.70;;;9.80;99.90;;;;;;4994891;28;20921;-77
2022/02/03 01:03:12;;;;;;;52.63;28.77;;;9.80;99.90;;;;;;5000767;28;20404;-77
2022/02/03 01:05:41;;;;;;;56.38;28.73;;;9.70;99.90;;;;;;5014747;28;20461;-77
2022/02/03 01:08:17;;;;;;;52.75;28.70;;;9.70;99.90;;;;;;5033283;28;20430;-77
2022/02/03 01:10:54;;;;;;;54.90;29.20;;;9.70;99.90;;;;;;5021654;28;20416;-76
2022/02/03 01:13:49;;;;;;;61.63;30.45;;;9.70;99.90;;;;;;4988022;28;20478;-77
2022/02/03 01:45:50;;;;;;;49.78;28.70;;;9.80;96.50;;;;;;5033828;28;20447;-78
2022/02/03 01:53:31;;;;;;;50.90;29.95;;;9.90;92.90;;;;;;5028665;28;20384;-79
2022/02/03 01:56:11;;;;;;;53.47;29.70;;;10.00;91.60;;;;;;5021847;28;20423;-79
2022/02/03 01:59:01;;;;;;;54.35;30.65;;;10.00;89.90;;;;;;5019873;28;20488;-79
2022/02/03 02:01:30;;;;;;;56.47;30.60;;;10.00;90.20;;;;;;5019857;28;20384;-78
2022/02/03 02:04:14;;;;;;;56.08;29.75;;;10.00;90.70;;;;;;5020601;28;20408;-78
2022/02/03 02:07:06;;;;;;;56.20;31.20;;;10.00;91.40;;;;;;5023041;28;20408;-78
2022/02/03 02:10:44;;;;;;;55.17;29.52;;;9.90;93.10;;;;;;5017983;28;20389;-77
2022/02/03 02:14:09;;;;;;;62.15;31.13;;;9.90;91.00;;;;;;5034286;28;20431;-78
2022/02/03 02:16:15;;;;;;;58.28;31.67;;;9.90;91.50;;;;;;5020884;28;20427;-76
2022/02/03 02:42:25;;;;;;;56.22;29.52;;;9.80;94.30;;;;;;5025537;28;20522;-79
2022/02/03 02:44:36;;;;;;;48.53;27.70;;;9.70;96.20;;;;;;5027198;28;20412;-79
2022/02/03 02:47:12;;;;;;;54.33;27.00;;;9.80;94.00;;;;;;5025787;28;20420;-78
2022/02/03 02:49:52;;;;;;;52.78;27.83;;;9.80;94.60;;;;;;5010018;28;20385;-78
2022/02/03 02:52:27;;;;;;;48.57;28.90;;;9.80;94.50;;;;;;5009743;28;20442;-79
2022/02/03 02:58:17;;;;;;;49.45;26.55;;;9.80;92.70;;;;;;5033014;28;20384;-75
2022/02/03 03:31:28;;;;;;;63.42;30.60;;;9.80;90.40;;;;;;5051597;28;20422;-76
2022/02/03 03:34:27;;;;;;;58.83;30.17;;;9.80;89.30;;;;;;5039321;28;20405;-75
2022/02/03 03:36:49;;;;;;;57.97;31.45;;;9.70;91.40;;;;;;5032715;28;20389;-78
2022/02/03 03:39:15;;;;;;;59.05;31.90;;;9.80;92.50;;;;;;5045466;28;20400;-76
2022/02/03 03:41:45;;;;;;;62.38;32.30;;;9.70;93.80;;;;;;5017009;28;20407;-79
2022/02/03 03:44:15;;;;;;;54.20;30.07;;;9.60;96.60;;;;;;5019562;28;20400;-77
2022/02/03 03:46:45;;;;;;;55.95;30.15;;;9.70;96.20;;;;;;5003544;28;20497;-78
2022/02/03 03:49:14;;;;;;;52.38;29.30;;;9.60;96.20;;;;;;4985295;28;20799;-76
2022/02/03 03:51:47;;;;;;;54.70;29.23;;;9.60;98.20;;;;;;5014013;28;20417;-79
2022/02/03 03:54:34;;;;;;;53.30;29.27;;;9.60;96.80;;;;;;5016968;28;20418;-76
2022/02/03 04:00:12;;;;;;;50.30;26.88;;;9.60;98.20;;;;;;5023428;28;20402;-78
2022/02/03 04:35:51;;;;;;;32.03;18.67;;;9.40;93.20;;;;;;5015046;28;20398;-76
2022/02/03 05:04:16;;;;;;;23.65;12.63;;;9.30;82.10;;;;;;5009887;28;20758;-78
2022/02/03 05:07:17;;;;;;;18.35;11.90;;;9.30;81.10;;;;;;5010146;28;20420;-77
2022/02/03 05:10:17;;;;;;;17.27;11.20;;;9.30;79.50;;;;;;5020424;28;20385;-75
2022/02/03 05:13:34;;;;;;;16.33;10.63;;;9.40;78.50;;;;;;5034742;28;20413;-76
2022/02/03 05:19:37;;;;;;;19.77;10.70;;;9.40;77.70;;;;;;5020103;28;20943;-77
2022/02/03 05:25:34;;;;;;;18.60;11.15;;;9.30;78.80;;;;;;5013023;28;20443;-78
2022/02/03 05:44:21;;;;;;;24.73;11.63;;;9.30;79.40;;;;;;5011020;28;20395;-77
2022/02/03 05:55:29;;;;;;;24.23;14.45;;;9.10;84.30;;;;;;5017723;28;20412;-78
2022/02/03 06:03:16;;;;;;;22.88;13.90;;;9.30;80.90;;;;;;5011223;28;20475;-77
2022/02/03 06:13:51;;;;;;;22.25;14.52;;;9.20;84.60;;;;;;5016594;28;20411;-77
2022/02/03 06:21:39;;;;;;;21.20;13.98;;;9.20;84.50;;;;;;5004563;28;20400;-77
2022/02/03 06:24:30;;;;;;;24.38;14.27;;;9.20;84.30;;;;;;5018710;28;20403;-77
2022/02/03 06:29:48;;;;;;;32.55;17.00;;;9.20;85.70;;;;;;5021570;28;20416;-78
2022/02/03 06:32:13;;;;;;;25.00;15.88;;;9.10;86.30;;;;;;5003099;28;20408;-77
2022/02/03 06:34:39;;;;;;;24.03;14.80;;;9.10;86.30;;;;;;5024508;28;20409;-76
2022/02/03 06:37:04;;;;;;;26.27;15.20;;;9.10;86.00;;;;;;5021441;28;20400;-78
2022/02/03 06:39:31;;;;;;;25.30;14.57;;;9.10;87.90;;;;;;5012363;28;20494;-78
2022/02/03 06:41:59;;;;;;;23.40;15.10;;;9.20;86.20;;;;;;5016138;28;20428;-78
2022/02/03 06:44:32;;;;;;;23.63;16.02;;;9.20;84.40;;;;;;5016467;28;20874;-77
2022/02/03 06:47:03;;;;;;;30.70;16.85;;;9.10;84.90;;;;;;5035397;28;20466;-78
2022/02/03 06:49:41;;;;;;;31.35;17.60;;;9.10;88.70;;;;;;5024933;28;20454;-76
2022/02/03 06:52:39;;;;;;;38.20;19.90;;;9.00;89.80;;;;;;5007440;28;20461;-78
2022/02/03 06:55:05;;;;;;;30.20;16.88;;;9.10;90.70;;;;;;5018248;28;20393;-77
2022/02/03 07:00:29;;;;;;;29.52;16.95;;;9.20;86.30;;;;;;5012809;28;20408;-77
2022/02/03 07:02:57;;;;;;;30.27;16.48;;;9.00;90.40;;;;;;4989826;28;20413;-77
2022/02/03 07:05:23;;;;;;;31.33;18.05;;;9.10;89.20;;;;;;4995800;28;20416;-78
2022/02/03 07:07:49;;;;;;;30.20;17.17;;;9.00;89.60;;;;;;5013790;28;20397;-78
2022/02/03 07:10:15;;;;;;;31.02;18.70;;;9.10;91.40;;;;;;5014242;28;20381;-78
2022/02/03 07:12:41;;;;;;;28.40;16.70;;;9.10;92.70;;;;;;5003613;28;20857;-78
2022/02/03 07:15:08;;;;;;;30.77;17.58;;;9.00;93.40;;;;;;4995683;28;20435;-77
2022/02/03 07:17:35;;;;;;;33.83;17.27;;;9.00;94.20;;;;;;5012296;28;20768;-78
2022/02/03 07:20:03;;;;;;;28.50;17.33;;;8.90;96.00;;;;;;5012191;28;20443;-77
2022/02/03 07:22:29;;;;;;;28.50;17.50;;;8.90;97.40;;;;;;4995616;28;20404;-77
2022/02/03 07:24:55;;;;;;;29.40;16.60;;;8.90;96.70;;;;;;5011710;28;20646;-78
2022/02/03 07:27:22;;;;;;;33.80;16.50;;;9.00;96.50;;;;;;5016333;28;20389;-79
2022/02/03 07:29:49;;;;;;;26.52;16.00;;;8.90;97.70;;;;;;5017203;28;20400;-79
2022/02/03 07:32:14;;;;;;;26.27;16.13;;;8.90;97.40;;;;;;5029492;28;20399;-79
2022/02/03 07:34:40;;;;;;;29.80;16.77;;;8.90;98.70;;;;;;5006457;28;20393;-79
2022/02/03 07:37:05;;;;;;;28.70;17.37;;;8.90;94.60;;;;;;5019751;28;20758;-78
2022/02/03 07:39:32;;;;;;;26.00;15.80;;;9.00;95.50;;;;;;5002588;28;20747;-78
2022/02/03 07:41:59;;;;;;;29.00;16.10;;;9.00;91.80;;;;;;5016400;28;20422;-78
2022/02/03 07:44:25;;;;;;;30.70;16.90;;;9.00;93.00;;;;;;5023844;28;20973;-78
2022/02/03 07:46:51;;;;;;;32.20;16.08;;;9.00;93.10;;;;;;5017848;28;20423;-77
2022/02/03 07:49:17;;;;;;;23.90;15.13;;;9.00;94.00;;;;;;5014760;28;20404;-78
2022/02/03 07:51:42;;;;;;;26.50;15.80;;;9.00;93.40;;;;;;5015559;28;20770;-78
2022/02/03 07:54:11;;;;;;;22.10;14.20;;;9.10;93.20;;;;;;5007617;28;20391;-78
2022/02/03 07:56:37;;;;;;;27.83;14.80;;;9.10;91.90;;;;;;5014259;28;20462;-78
2022/02/03 07:59:04;;;;;;;24.70;15.45;;;9.10;92.20;;;;;;4997461;28;20412;-78
2022/02/03 08:01:29;;;;;;;24.08;15.00;;;9.10;90.10;;;;;;5016444;28;20412;-77
2022/02/03 08:03:56;;;;;;;26.23;15.02;;;9.10;87.90;;;;;;5014339;28;20408;-76
2022/02/03 08:06:27;;;;;;;26.75;15.50;;;9.20;88.00;;;;;;5013635;28;20420;-76
2022/02/03 08:08:59;;;;;;;29.60;16.55;;;9.20;86.30;;;;;;5012208;28;20381;-75
2022/02/03 08:11:30;;;;;;;27.92;14.70;;;9.10;87.50;;;;;;5010700;28;20480;-75
2022/02/03 08:14:06;;;;;;;24.52;14.82;;;9.10;89.20;;;;;;5009686;28;20412;-76
2022/02/03 08:16:37;;;;;;;23.08;14.30;;;9.30;85.80;;;;;;5007883;28;20391;-75
2022/02/03 08:19:09;;;;;;;28.00;14.77;;;9.30;84.80;;;;;;5017720;28;20393;-74
2022/02/03 08:21:38;;;;;;;22.00;14.07;;;9.40;83.50;;;;;;5009669;28;21358;-75
2022/02/03 08:32:06;;;;;;;23.47;14.70;;;9.50;80.60;;;;;;5019643;28;20646;-75
2022/02/03 08:37:17;;;;;;;27.75;14.35;;;9.50;79.50;;;;;;5028472;28;20415;-75
2022/02/03 08:40:07;;;;;;;24.17;14.38;;;9.60;78.20;;;;;;5018700;28;20407;-75
2022/02/03 08:42:32;;;;;;;25.90;13.75;;;9.50;74.90;;;;;;5014438;28;20451;-78
2022/02/03 08:44:58;;;;;;;26.20;14.00;;;9.60;74.60;;;;;;5016534;28;20415;-75
2022/02/03 08:47:23;;;;;;;22.03;13.60;;;9.50;76.00;;;;;;5007953;28;20428;-75
2022/02/03 08:49:49;;;;;;;20.60;12.87;;;9.50;76.30;;;;;;5026658;28;20485;-76
2022/02/03 08:52:17;;;;;;;24.77;13.52;;;9.50;77.10;;;;;;5021505;28;20420;-76
2022/02/03 08:54:55;;;;;;;23.45;14.32;;;9.40;79.10;;;;;;5019068;28;20907;-76
2022/02/03 08:57:34;;;;;;;23.85;14.00;;;9.30;80.40;;;;;;5023274;28;20399;-78
2022/02/03 09:00:18;;;;;;;20.92;12.50;;;9.40;80.10;;;;;;5022191;28;20405;-76
2022/02/03 09:32:01;;;;;;;22.02;13.70;;;9.40;75.10;;;;;;5015828;28;20388;-76
2022/02/03 09:38:32;;;;;;;23.17;15.00;;;9.40;73.90;;;;;;5026067;28;20424;-77
2022/02/03 09:57:32;;;;;;;25.80;14.30;;;9.40;72.00;;;;;;5017220;28;20484;-75
2022/02/03 10:00:28;;;;;;;22.20;13.30;;;9.40;70.00;;;;;;5025446;28;20399;-77
2022/02/03 10:03:09;;;;;;;20.70;12.80;;;9.50;68.00;;;;;;5016416;28;20730;-76
2022/02/03 10:05:39;;;;;;;18.08;12.85;;;9.50;66.60;;;;;;5015920;28;20503;-76
2022/02/03 10:08:10;;;;;;;22.50;13.00;;;9.50;66.80;;;;;;5002545;28;20394;-76
2022/02/03 10:10:36;;;;;;;20.75;13.13;;;9.60;64.60;;;;;;5022832;28;20406;-77
2022/02/03 10:13:18;;;;;;;17.80;12.00;;;9.50;63.20;;;;;;5029759;28;20392;-76
2022/02/03 10:15:44;;;;;;;17.85;11.57;;;9.60;61.80;;;;;;5027612;28;20399;-76
2022/02/03 10:18:28;;;;;;;17.52;11.25;;;9.50;62.30;;;;;;5007977;28;20398;-76
2022/02/03 10:20:56;;;;;;;15.30;10.77;;;9.60;58.60;;;;;;5019714;28;20752;-76
2022/02/03 10:23:23;;;;;;;16.98;10.07;;;9.60;57.50;;;;;;5023502;28;20393;-76
2022/02/03 10:25:54;;;;;;;20.33;10.50;;;9.60;57.30;;;;;;5029181;28;20982;-77
2022/02/03 10:28:20;;;;;;;16.10;10.43;;;9.60;57.20;;;;;;5017514;28;20401;-76
2022/02/03 10:30:54;;;;;;;15.48;10.48;;;9.60;57.30;;;;;;5003998;28;20486;-76
2022/02/03 10:33:31;;;;;;;15.23;9.98;;;9.60;55.70;;;;;;5033337;28;20377;-77
2022/02/03 10:36:01;;;;;;;14.50;9.25;;;9.70;53.50;;;;;;5039591;28;20408;-77
2022/02/03 10:44:38;;;;;;;12.23;8.15;;;9.60;53.20;;;;;;5036446;28;20508;-77
2022/02/03 11:04:49;;;;;;;11.43;6.47;;;9.40;49.10;;;;;;5036562;28;20456;-77
2022/02/03 11:07:34;;;;;;;9.90;6.37;;;9.30;48.90;;;;;;5011355;28;20530;-77
2022/02/03 11:12:30;;;;;;;6.82;5.50;;;9.50;48.30;;;;;;5046111;28;20387;-76
2022/02/03 11:14:57;;;;;;;8.18;5.82;;;9.60;45.10;;;;;;5031150;28;20408;-78
2022/02/03 11:17:23;;;;;;;8.43;5.63;;;9.60;46.00;;;;;;5028602;28;20403;-76
2022/02/03 11:19:52;;;;;;;8.77;5.50;;;9.60;45.00;;;;;;5033648;28;20495;-77
2022/02/03 11:22:28;;;;;;;7.87;5.40;;;9.60;44.90;;;;;;5009797;28;20456;-77
2022/02/03 11:25:08;;;;;;;11.98;6.55;;;9.70;43.60;;;;;;5029050;28;20395;-75
2022/02/03 11:27:50;;;;;;;8.23;6.60;;;9.70;45.30;;;;;;5034286;28;20395;-77
2022/02/03 11:30:56;;;;;;;12.07;6.00;;;9.70;44.00;;;;;;5034974;28;20853;-76
2022/02/03 11:33:35;;;;;;;8.70;5.80;;;9.70;44.70;;;;;;5037638;28;20387;-77
2022/02/03 11:44:58;;;;;;;8.60;5.20;;;9.70;41.40;;;;;;5019599;28;20406;-78
2022/02/03 11:47:43;;;;;;;7.65;5.32;;;9.70;41.60;;;;;;5032572;28;20409;-78
2022/02/03 11:53:31;;;;;;;10.40;6.00;;;9.70;42.20;;;;;;5030092;28;20422;-77
2022/02/03 12:02:02;;;;;;;9.82;5.63;;;9.60;42.90;;;;;;5038189;28;20401;-79
2022/02/03 12:13:04;;;;;;;11.02;7.95;;;9.50;41.70;;;;;;5032182;28;20464;-77
2022/02/03 12:15:49;;;;;;;5.85;4.90;;;9.50;42.60;;;;;;5019069;28;20401;-78
2022/02/03 12:19:23;;;;;;;12.00;6.10;;;9.50;42.90;;;;;;5029470;28;20395;-80
2022/02/03 12:21:57;;;;;;;8.63;6.10;;;9.50;43.70;;;;;;5020580;28;20878;-79
2022/02/03 12:24:42;;;;;;;9.75;5.97;;;9.60;43.20;;;;;;5029144;28;20419;-78
2022/02/03 12:27:34;;;;;;;9.07;5.80;;;9.60;42.20;;;;;;5024996;28;20407;-78
2022/02/03 12:30:05;;;;;;;6.28;5.50;;;9.60;42.20;;;;;;5032289;28;20583;-78
2022/02/03 12:38:28;;;;;;;9.05;5.93;;;9.40;42.70;;;;;;5036432;28;20392;-79
2022/02/03 12:40:56;;;;;;;6.65;5.95;;;9.40;43.50;;;;;;5009268;28;20912;-79
2022/02/03 12:43:31;;;;;;;7.03;5.93;;;9.40;42.50;;;;;;5018259;28;20409;-79
2022/02/03 12:45:59;;;;;;;9.15;5.82;;;9.40;43.40;;;;;;5010791;28;20415;-78
2022/02/03 12:48:27;;;;;;;7.93;5.60;;;9.40;42.50;;;;;;5029973;28;20395;-77
2022/02/03 12:50:55;;;;;;;9.30;6.00;;;9.40;42.90;;;;;;5025840;28;20407;-77
2022/02/03 12:53:21;;;;;;;8.50;5.80;;;9.50;42.60;;;;;;5023604;28;20392;-77
2022/02/03 12:55:51;;;;;;;7.75;5.22;;;9.50;42.80;;;;;;5016489;28;20396;-77
2022/02/03 12:58:23;;;;;;;5.73;5.13;;;9.40;41.70;;;;;;5038191;28;20463;-77
2022/02/03 13:00:55;;;;;;;9.30;6.03;;;9.30;41.80;;;;;;5029988;28;20415;-78
2022/02/03 13:06:04;;;;;;;9.00;5.70;;;9.10;44.50;;;;;;5032614;28;20476;-77
2022/02/03 13:08:39;;;;;;;14.15;9.43;;;9.00;44.60;;;;;;5028738;28;20393;-77
2022/02/03 13:11:17;;;;;;;8.10;6.32;;;9.10;45.30;;;;;;5037217;28;20419;-78
2022/02/03 13:13:59;;;;;;;15.15;6.05;;;9.10;45.60;;;;;;5030013;28;20418;-77
2022/02/03 13:16:24;;;;;;;12.40;6.27;;;9.10;45.90;;;;;;5026842;28;20518;-77
2022/02/03 13:19:04;;;;;;;8.55;6.05;;;9.10;44.30;;;;;;5027371;28;20393;-78
2022/02/03 13:21:53;;;;;;;9.45;6.22;;;9.20;44.60;;;;;;5019957;28;20409;-78
2022/02/03 13:26:44;;;;;;;11.20;6.63;;;9.10;45.40;;;;;;5018756;28;20465;-78
2022/02/03 13:29:18;;;;;;;9.30;6.27;;;9.20;45.30;;;;;;5008193;28;20973;-78
2022/02/03 13:31:57;;;;;;;9.70;5.93;;;9.20;44.20;;;;;;5024294;28;20458;-76
2022/02/03 13:34:35;;;;;;;9.38;6.35;;;9.30;43.60;;;;;;5027662;28;20449;-79
2022/02/03 13:39:39;;;;;;;8.70;6.30;;;9.30;43.40;;;;;;5025227;28;20443;-78
2022/02/03 13:42:11;;;;;;;9.40;6.40;;;9.20;43.80;;;;;;5040294;28;20567;-81
2022/02/03 13:44:37;;;;;;;16.42;6.30;;;9.20;44.60;;;;;;5028502;28;20754;-80
2022/02/03 13:47:20;;;;;;;10.87;6.37;;;9.20;44.20;;;;;;5020669;28;20410;-79
2022/02/03 13:50:29;;;;;;;7.45;6.40;;;9.00;45.70;;;;;;5034804;28;20433;-79
2022/02/03 13:53:12;;;;;;;11.00;5.78;;;9.10;45.60;;;;;;5025552;28;20936;-78
2022/02/03 14:19:00;;;;;;;12.65;7.20;;;8.60;51.90;;;;;;5010866;28;20468;-80
2022/02/03 14:21:34;;;;;;;27.17;15.82;;;8.60;51.80;;;;;;5022817;28;20391;-80
2022/02/03 14:26:54;;;;;;;10.43;7.20;;;8.70;51.20;;;;;;5032666;28;20422;-79
2022/02/03 14:29:24;;;;;;;15.40;7.10;;;8.70;48.80;;;;;;5019292;28;20480;-80
2022/02/03 14:32:29;;;;;;;14.73;7.72;;;8.70;49.20;;;;;;5008585;28;20438;-79
2022/02/03 14:34:42;;;;;;;10.88;7.15;;;8.90;48.20;;;;;;5025041;28;20393;-79
2022/02/03 14:42:18;;;;;;;13.07;7.10;;;9.30;45.60;;;;;;5029265;28;20425;-80
2022/02/03 14:44:44;;;;;;;17.67;7.35;;;9.40;43.90;;;;;;5018094;28;20740;-80
2022/02/03 14:47:10;;;;;;;11.02;7.10;;;9.40;43.70;;;;;;5015677;28;20511;-80
2022/02/03 14:49:39;;;;;;;18.67;8.52;;;9.40;44.30;;;;;;5031866;28;20399;-78
2022/02/03 15:00:24;;;;;;;12.30;6.90;;;9.40;44.00;;;;;;5027163;28;20434;-80
2022/02/03 15:02:50;;;;;;;15.18;7.60;;;9.40;43.90;;;;;;5014539;28;20398;-80
2022/02/03 15:05:24;;;;;;;14.80;7.53;;;9.30;44.20;;;;;;5025858;28;20399;-80
2022/02/03 15:07:57;;;;;;;14.20;6.93;;;9.30;44.20;;;;;;5018662;28;20396;-79
2022/02/03 15:13:09;;;;;;;12.88;7.40;;;9.20;44.50;;;;;;5027167;28;20455;-79
2022/02/03 15:15:35;;;;;;;12.10;6.50;;;9.30;44.00;;;;;;5019716;28;20477;-79
2022/02/03 15:18:00;;;;;;;12.80;8.13;;;9.30;43.60;;;;;;5027747;28;20423;-78
2022/02/03 15:20:26;;;;;;;11.60;7.85;;;9.20;44.60;;;;;;5019559;28;20920;-78
2022/02/03 15:22:52;;;;;;;14.55;7.55;;;9.10;44.50;;;;;;5029465;28;20894;-78
2022/02/03 15:25:19;;;;;;;12.75;7.30;;;9.10;45.00;;;;;;5034221;28;20567;-78
2022/02/03 15:27:45;;;;;;;12.82;7.40;;;9.10;44.60;;;;;;5032902;28;20402;-77
2022/02/03 15:30:11;;;;;;;14.88;6.90;;;9.10;44.10;;;;;;5026344;28;20393;-77
2022/02/03 15:32:40;;;;;;;11.27;7.20;;;9.20;43.40;;;;;;5017565;28;20560;-77
2022/02/03 15:35:12;;;;;;;11.85;7.25;;;9.10;43.60;;;;;;5041425;28;20387;-77
2022/02/03 15:37:37;;;;;;;14.13;7.60;;;9.20;43.00;;;;;;5036763;28;20489;-77
2022/02/03 15:40:05;;;;;;;11.05;7.28;;;9.10;45.00;;;;;;5026071;28;20397;-78
2022/02/03 15:42:38;;;;;;;14.73;7.57;;;9.10;43.90;;;;;;5031456;28;20391;-77
2022/02/03 15:45:05;;;;;;;13.63;7.80;;;9.00;44.30;;;;;;5027012;28;20415;-79
2022/02/03 16:01:38;;;;;;;18.35;8.25;;;9.00;44.60;;;;;;5019396;28;20403;-77
2022/02/03 16:17:31;;;;;;;18.50;8.43;;;8.90;45.10;;;;;;5020615;28;20431;-78
2022/02/03 16:20:11;;;;;;;17.55;8.80;;;8.90;45.80;;;;;;5019342;28;20432;-78
2022/02/03 16:22:50;;;;;;;17.88;8.75;;;8.80;46.70;;;;;;5021836;28;20401;-77
2022/02/03 16:42:37;;;;;;;20.25;10.05;;;8.70;49.40;;;;;;5007945;28;20490;-78
2022/02/03 16:52:48;;;;;;;17.70;10.50;;;8.60;50.60;;;;;;5011348;28;20428;-78
2022/02/03 16:55:18;;;;;;;21.75;9.65;;;8.60;50.40;;;;;;5010972;28;20401;-77
2022/02/03 16:57:45;;;;;;;23.20;10.27;;;8.50;50.50;;;;;;5021370;28;20409;-79
2022/02/03 17:00:14;;;;;;;15.32;9.13;;;8.50;51.00;;;;;;5019977;28;20412;-78
2022/02/03 17:02:40;;;;;;;18.37;10.10;;;8.50;51.10;;;;;;5016561;28;20416;-78
2022/02/03 17:05:07;;;;;;;16.47;9.70;;;8.50;51.40;;;;;;5008703;28;20408;-78
2022/02/03 17:07:32;;;;;;;17.02;9.93;;;8.50;50.80;;;;;;5021859;28;20396;-78
2022/02/03 17:09:58;;;;;;;20.13;10.67;;;8.50;50.70;;;;;;5024501;28;20413;-78
2022/02/03 17:12:24;;;;;;;20.13;10.27;;;8.60;49.60;;;;;;5022798;28;20885;-78
2022/02/03 17:14:50;;;;;;;17.65;10.13;;;8.50;50.20;;;;;;5023370;28;20626;-79
2022/02/03 17:17:19;;;;;;;19.37;10.53;;;8.60;49.70;;;;;;5020652;28;20490;-79
2022/02/03 17:19:45;;;;;;;19.77;9.85;;;8.50;49.80;;;;;;5023409;28;20724;-78
2022/02/03 17:22:13;;;;;;;17.95;10.50;;;8.60;49.50;;;;;;5026772;28;20400;-78
2022/02/03 17:24:45;;;;;;;17.83;9.75;;;8.50;50.00;;;;;;5026554;28;20461;-78
2022/02/03 17:27:39;;;;;;;18.55;10.43;;;8.40;50.50;;;;;;5005613;28;20421;-79
2022/02/03 18:11:26;;;;;;;23.67;12.57;;;8.40;53.40;;;;;;5022690;28;20425;-77
2022/02/03 18:30:10;;;;;;;28.33;13.85;;;8.40;53.20;;;;;;5028041;28;20437;-78
2022/02/03 18:32:54;;;;;;;23.13;12.40;;;8.40;53.40;;;;;;5014573;28;20843;-78
2022/02/03 18:46:15;;;;;;;23.20;13.02;;;8.40;53.60;;;;;;5035557;28;20427;-77
2022/02/03 18:53:55;;;;;;;21.70;13.98;;;8.40;54.50;;;;;;5029501;28;20389;-78
2022/02/03 18:56:34;;;;;;;25.20;13.80;;;8.40;54.50;;;;;;5020351;28;20402;-77
2022/02/03 18:59:23;;;;;;;23.77;14.35;;;8.40;54.40;;;;;;5026090;28;20667;-79
2022/02/03 20:06:39;;;;;;;35.55;19.15;;;8.10;68.20;;;;;;5013858;28;20423;-78
2022/02/03 20:11:33;;;;;;;36.60;20.20;;;8.10;68.20;;;;;;5010993;28;20458;-78
2022/02/03 20:13:59;;;;;;;31.67;19.58;;;8.10;68.40;;;;;;5011128;28;20456;-78
2022/02/03 20:16:24;;;;;;;35.90;20.40;;;8.10;67.90;;;;;;5029917;28;20454;-80
2022/02/03 20:18:50;;;;;;;35.73;20.37;;;8.10;69.80;;;;;;5024306;28;20450;-79
2022/02/03 20:21:16;;;;;;;37.05;20.20;;;8.00;70.20;;;;;;5025279;28;20462;-80
2022/02/03 20:23:43;;;;;;;31.23;20.88;;;8.00;71.50;;;;;;5031757;28;20430;-80
2022/02/03 20:26:11;;;;;;;36.78;20.33;;;7.90;72.40;;;;;;5031091;28;20480;-80
2022/02/03 20:28:37;;;;;;;39.65;21.77;;;8.00;71.60;;;;;;5015134;28;20426;-78
2022/02/03 20:31:03;;;;;;;36.97;20.75;;;8.00;73.00;;;;;;5021988;28;20401;-78
2022/02/03 20:33:29;;;;;;;35.40;22.60;;;8.00;74.00;;;;;;5027688;28;20395;-78
2022/02/03 20:35:55;;;;;;;37.88;23.02;;;7.90;74.10;;;;;;5031947;28;20434;-78
2022/02/03 20:38:21;;;;;;;41.43;23.90;;;8.00;75.00;;;;;;5013253;28;20475;-78
2022/02/03 20:40:47;;;;;;;37.67;21.70;;;8.00;73.90;;;;;;5024788;28;20408;-77
2022/02/03 20:43:13;;;;;;;35.47;21.03;;;8.00;74.20;;;;;;5017239;28;20892;-80
2022/02/03 20:45:40;;;;;;;37.70;21.63;;;8.00;75.00;;;;;;5018442;28;20508;-78
2022/02/03 20:48:06;;;;;;;39.38;22.98;;;8.00;75.80;;;;;;5017469;28;20476;-79
2022/02/03 20:50:36;;;;;;;35.85;22.77;;;7.90;77.40;;;;;;5026230;28;20406;-79
2022/02/03 20:53:03;;;;;;;35.92;22.05;;;8.00;77.70;;;;;;5029858;28;20480;-79
2022/02/03 20:55:28;;;;;;;38.35;22.90;;;7.90;78.40;;;;;;5020058;28;20401;-78
2022/02/03 20:57:54;;;;;;;38.78;22.98;;;7.80;79.80;;;;;;5023088;28;20476;-79
2022/02/03 21:00:31;;;;;;;34.83;21.55;;;8.00;77.60;;;;;;5023258;28;20408;-79
2022/02/03 21:05:22;;;;;;;37.35;22.73;;;7.90;77.90;;;;;;5014418;28;20399;-78
2022/02/03 21:07:49;;;;;;;37.85;23.25;;;7.90;79.50;;;;;;5009323;28;20402;-78
2022/02/03 21:10:21;;;;;;;35.90;22.00;;;8.00;78.90;;;;;;5009255;28;20411;-77
2022/02/03 21:12:47;;;;;;;40.88;22.83;;;7.90;78.80;;;;;;5019460;28;20886;-77
2022/02/03 21:15:22;;;;;;;38.50;22.65;;;8.00;78.80;;;;;;5022343;28;20408;-78
2022/02/03 21:17:47;;;;;;;41.80;23.58;;;8.00;78.10;;;;;;5014915;28;20458;-78
2022/02/03 21:20:16;;;;;;;39.37;23.50;;;7.90;78.20;;;;;;5017877;28;20438;-77
2022/02/03 21:22:42;;;;;;;37.70;24.03;;;7.90;78.50;;;;;;5034439;28;20381;-78
2022/02/03 21:25:21;;;;;;;41.38;22.58;;;7.90;78.90;;;;;;5020998;28;20485;-77
2022/02/03 21:27:49;;;;;;;37.72;22.67;;;8.00;78.40;;;;;;4985449;28;20407;-77
2022/02/03 21:30:17;;;;;;;37.70;23.05;;;7.90;78.40;;;;;;5012492;28;20400;-78
2022/02/03 21:32:43;;;;;;;35.00;22.00;;;7.90;78.30;;;;;;5030077;28;20427;-78
2022/02/03 21:35:10;;;;;;;34.97;22.40;;;8.00;77.80;;;;;;5010106;28;20401;-78
2022/02/03 21:37:37;;;;;;;41.20;23.33;;;8.00;77.70;;;;;;5024177;28;20426;-81
2022/02/03 21:40:03;;;;;;;39.35;23.63;;;8.00;80.50;;;;;;5033392;28;20397;-79
2022/02/03 21:42:29;;;;;;;37.63;22.90;;;8.00;79.60;;;;;;5035166;28;20399;-77
2022/02/03 21:44:54;;;;;;;39.63;22.47;;;8.00;79.40;;;;;;5020772;28;20440;-81
2022/02/03 21:47:20;;;;;;;39.07;22.87;;;8.10;77.60;;;;;;5033807;28;20476;-80
2022/02/03 21:49:46;;;;;;;40.70;23.10;;;8.00;77.20;;;;;;5014439;28;20431;-79
2022/02/03 21:52:19;;;;;;;43.37;24.57;;;8.00;78.50;;;;;;5021519;28;20396;-79
2022/02/03 21:54:45;;;;;;;41.83;23.65;;;7.90;80.10;;;;;;5018515;28;20489;-78
2022/02/03 21:57:11;;;;;;;39.53;23.90;;;7.90;80.00;;;;;;5030517;28;20513;-79
2022/02/03 21:59:37;;;;;;;37.22;23.70;;;8.00;78.80;;;;;;5006964;28;20413;-79
2022/02/03 22:02:08;;;;;;;34.40;21.80;;;8.00;77.30;;;;;;4998952;28;20401;-78
2022/02/03 22:04:34;;;;;;;44.03;23.83;;;8.00;77.50;;;;;;5027779;28;20403;-79
2022/02/03 22:07:01;;;;;;;35.88;22.33;;;8.10;76.70;;;;;;5024032;28;20888;-80
2022/02/03 22:09:27;;;;;;;36.92;23.55;;;8.20;74.10;;;;;;5022995;28;20447;-78
2022/02/03 22:11:52;;;;;;;36.15;22.60;;;8.00;75.20;;;;;;5030667;28;20402;-80
2022/02/03 22:14:18;;;;;;;34.80;22.58;;;8.10;77.50;;;;;;5033559;28;20399;-79
2022/02/03 22:16:46;;;;;;;38.80;21.98;;;8.10;75.70;;;;;;5020968;28;20408;-80
2022/02/03 22:19:12;;;;;;;37.22;22.30;;;8.10;73.70;;;;;;5008470;28;20398;-80
2022/02/03 22:24:21;;;;;;;34.65;22.38;;;8.00;76.00;;;;;;5024369;28;20404;-80
2022/02/03 22:45:51;;;;;;;41.03;22.83;;;8.10;77.00;;;;;;5045095;28;20418;-78
2022/02/03 22:48:35;;;;;;;40.83;23.33;;;8.00;78.70;;;;;;5035145;28;20423;-78
2022/02/03 22:51:04;;;;;;;38.17;23.33;;;8.10;78.20;;;;;;5018438;28;20395;-78
2022/02/03 22:53:35;;;;;;;34.10;23.20;;;8.00;78.30;;;;;;5027285;28;20406;-78
2022/02/03 22:56:12;;;;;;;37.13;23.00;;;8.00;79.10;;;;;;5032349;28;20407;-78
2022/02/03 23:01:25;;;;;;;39.58;23.00;;;8.10;78.90;;;;;;5025440;28;20406;-79
2022/02/03 23:03:51;;;;;;;35.50;23.33;;;7.90;81.20;;;;;;5014046;28;20413;-79
2022/02/03 23:06:17;;;;;;;36.40;23.90;;;8.00;81.20;;;;;;5028804;28;20490;-79
2022/02/03 23:14:08;;;;;;;34.45;23.02;;;8.10;78.90;;;;;;5031644;28;20398;-77
2022/02/03 23:21:54;;;;;;;37.88;23.02;;;8.10;79.10;;;;;;5026965;28;21007;-77
2022/02/03 23:24:20;;;;;;;31.60;21.20;;;8.10;79.10;;;;;;5024159;28;20520;-76
2022/02/03 23:26:59;;;;;;;36.17;22.83;;;8.10;78.80;;;;;;5031103;28;20841;-77
2022/02/03 23:29:25;;;;;;;34.40;22.05;;;8.20;77.80;;;;;;5022390;28;20415;-78
2022/02/03 23:32:07;;;;;;;34.63;21.88;;;8.20;78.70;;;;;;5027159;28;20472;-79
2022/02/03 23:34:32;;;;;;;32.80;21.60;;;8.10;78.70;;;;;;5029886;28;20395;-79
2022/02/03 23:36:58;;;;;;;36.58;22.60;;;8.10;78.10;;;;;;5027492;28;20403;-79
2022/02/03 23:39:38;;;;;;;35.90;22.65;;;8.20;76.40;;;;;;5040451;28;20400;-78
2022/02/03 23:42:48;;;;;;;35.50;21.15;;;8.20;77.30;;;;;;5026544;28;20387;-80
2022/02/03 23:51:04;;;;;;;31.63;20.75;;;8.20;77.00;;;;;;5028607;28;20907;-79
